createdAt,value
2022-10-09T00:02:14.447Z,4.78
2022-10-09T00:04:44.604Z,8.05
2022-10-09T00:07:14.535Z,7.15
2022-10-09T00:09:44.374Z,7.18
2022-10-09T00:12:14.654Z,9.27
2022-10-09T00:14:45.136Z,6.20
2022-10-09T00:17:16.735Z,3.88
2022-10-09T00:19:46.655Z,5.05
2022-10-09T00:22:16.774Z,6.25
2022-10-09T00:24:46.702Z,4.00
2022-10-09T00:27:16.625Z,3.80
2022-10-09T00:29:46.906Z,3.60
2022-10-09T00:32:18.604Z,3.50
2022-10-09T00:34:48.864Z,3.03
2022-10-09T00:37:18.863Z,5.65
2022-10-09T00:39:49.177Z,3.83
2022-10-09T00:42:19.097Z,3.67
2022-10-09T00:44:53.173Z,5.72
2022-10-09T00:47:29.084Z,11.40
2022-10-09T00:50:04.524Z,7.95
2022-10-09T00:52:35.365Z,5.30
2022-10-09T00:55:06.204Z,3.83
2022-10-09T00:57:39.191Z,5.57
2022-10-09T01:00:12.244Z,3.38
2022-10-09T01:02:44.892Z,5.28
2022-10-09T01:05:16.214Z,2.90
2022-10-09T01:10:28.846Z,4.88
2022-10-09T01:13:08.173Z,3.88
2022-10-09T01:15:46.087Z,4.13
2022-10-09T01:18:24.943Z,4.00
2022-10-09T01:21:00.834Z,4.55
2022-10-09T01:24:00.004Z,4.40
2022-10-09T01:26:44.874Z,8.10
2022-10-09T01:29:17.086Z,7.80
2022-10-09T01:31:50.623Z,4.75
2022-10-09T01:34:22.644Z,3.90
2022-10-09T01:36:54.014Z,6.40
2022-10-09T01:41:58.493Z,6.20
2022-10-09T01:44:30.943Z,4.47
2022-10-09T01:47:01.786Z,5.43
2022-10-09T01:49:45.664Z,2.63
2022-10-09T01:52:31.533Z,4.63
2022-10-09T01:55:20.863Z,6.15
2022-10-09T01:57:58.443Z,7.75
2022-10-09T02:00:30.060Z,5.35
2022-10-09T02:03:01.897Z,7.75
2022-10-09T02:05:33.553Z,7.40
2022-10-09T02:08:03.783Z,3.85
2022-10-09T02:10:37.114Z,5.50
2022-10-09T02:13:08.975Z,4.43
2022-10-09T02:15:47.299Z,3.78
2022-10-09T02:18:21.726Z,7.22
2022-10-09T02:20:57.192Z,3.63
2022-10-09T02:23:29.455Z,2.80
2022-10-09T02:26:00.414Z,4.25
2022-10-09T02:28:32.154Z,4.20
2022-10-09T02:31:13.183Z,4.75
2022-10-09T02:33:43.234Z,7.60
2022-10-09T02:36:14.573Z,5.63
2022-10-09T02:38:44.584Z,4.50
2022-10-09T02:41:14.813Z,6.32
2022-10-09T02:43:46.218Z,6.95
2022-10-09T02:46:17.206Z,3.40
2022-10-09T02:48:47.404Z,3.00
2022-10-09T02:51:17.964Z,6.93
2022-10-09T02:53:48.496Z,5.60
2022-10-09T02:56:18.585Z,5.65
2022-10-09T02:58:50.314Z,4.32
2022-10-09T03:01:21.009Z,4.93
2022-10-09T03:03:50.884Z,9.00
2022-10-09T03:06:23.344Z,8.65
2022-10-09T03:08:54.033Z,4.30
2022-10-09T03:11:26.364Z,6.68
2022-10-09T03:13:58.604Z,6.53
2022-10-09T03:18:58.803Z,5.15
2022-10-09T03:21:29.944Z,3.67
2022-10-09T03:23:59.872Z,6.28
2022-10-09T03:26:30.677Z,4.00
2022-10-09T03:29:02.203Z,9.13
2022-10-09T03:31:52.340Z,3.90
2022-10-09T03:34:22.804Z,10.27
2022-10-09T03:36:53.161Z,4.60
2022-10-09T03:39:23.188Z,5.15
2022-10-09T03:41:53.145Z,5.20
2022-10-09T03:44:24.983Z,7.20
2022-10-09T03:49:24.922Z,4.32
2022-10-09T03:51:55.354Z,6.30
2022-10-09T03:54:25.354Z,8.80
2022-10-09T03:56:55.573Z,9.23
2022-10-09T03:59:26.946Z,3.00
2022-10-09T04:01:57.183Z,11.10
2022-10-09T04:04:27.165Z,5.55
2022-10-09T04:06:57.235Z,5.65
2022-10-09T04:09:27.472Z,13.43
2022-10-09T04:11:57.503Z,6.03
2022-10-09T04:14:28.974Z,5.20
2022-10-09T04:16:59.294Z,5.72
2022-10-09T04:19:29.324Z,5.53
2022-10-09T04:21:59.264Z,6.03
2022-10-09T04:24:29.447Z,4.38
2022-10-09T04:26:59.394Z,7.30
2022-10-09T04:29:30.744Z,10.52
2022-10-09T04:34:30.684Z,5.88
2022-10-09T04:37:00.975Z,10.60
2022-10-09T04:39:31.204Z,6.18
2022-10-09T04:42:01.165Z,6.13
2022-10-09T04:44:32.553Z,5.65
2022-10-09T04:47:02.875Z,7.55
2022-10-09T04:49:32.745Z,7.65
2022-10-09T04:52:02.952Z,5.15
2022-10-09T04:54:33.104Z,7.22
2022-10-09T04:57:03.066Z,8.50
2022-10-09T04:59:34.504Z,4.45
2022-10-09T05:02:05.141Z,5.93
2022-10-09T05:04:35.194Z,7.25
2022-10-09T05:07:05.454Z,8.48
2022-10-09T05:09:35.377Z,6.50
2022-10-09T05:12:05.466Z,7.25
2022-10-09T05:14:37.286Z,4.72
2022-10-09T05:17:15.217Z,7.05
2022-10-09T05:19:45.990Z,5.35
2022-10-09T05:22:17.065Z,6.22
2022-10-09T05:24:47.505Z,5.38
2022-10-09T05:27:17.604Z,6.05
2022-10-09T05:29:48.945Z,3.33
2022-10-09T05:34:48.834Z,6.63
2022-10-09T05:37:18.865Z,4.75
2022-10-09T05:39:49.274Z,6.47
2022-10-09T05:42:19.303Z,39.85
2022-10-09T05:44:50.834Z,6.50
2022-10-09T05:47:21.318Z,4.05
2022-10-09T05:49:51.296Z,5.20
2022-10-09T05:52:21.424Z,4.13
2022-10-09T05:54:52.548Z,8.48
2022-10-09T05:57:22.455Z,6.38
2022-10-09T05:59:54.047Z,5.35
2022-10-09T06:02:24.229Z,12.88
2022-10-09T06:04:54.544Z,7.25
2022-10-09T06:07:24.438Z,7.90
2022-10-09T06:09:54.447Z,6.75
2022-10-09T06:12:24.935Z,12.40
2022-10-09T06:14:56.707Z,7.43
2022-10-09T06:17:26.865Z,12.93
2022-10-09T06:19:56.976Z,14.85
2022-10-09T06:22:27.107Z,10.18
2022-10-09T06:24:57.799Z,8.52
2022-10-09T06:27:28.104Z,11.95
2022-10-09T06:30:00.072Z,6.78
2022-10-09T06:32:30.196Z,8.50
2022-10-09T06:35:00.601Z,10.05
2022-10-09T06:37:30.622Z,7.18
2022-10-09T06:40:00.891Z,6.72
2022-10-09T06:42:31.884Z,5.53
2022-10-09T06:45:03.755Z,8.93
2022-10-09T06:50:03.907Z,8.02
2022-10-09T06:52:34.284Z,6.85
2022-10-09T06:55:04.664Z,6.55
2022-10-09T06:57:34.817Z,7.10
2022-10-09T07:00:08.777Z,7.90
2022-10-09T07:02:43.887Z,10.68
2022-10-09T07:05:14.640Z,6.22
2022-10-09T07:07:44.763Z,5.25
2022-10-09T07:10:15.617Z,7.40
2022-10-09T07:12:45.994Z,7.75
2022-10-09T07:15:18.112Z,3.78
2022-10-09T07:17:49.445Z,7.32
2022-10-09T07:20:19.793Z,5.68
2022-10-09T07:22:50.047Z,9.23
2022-10-09T07:25:20.652Z,7.65
2022-10-09T07:27:50.992Z,7.75
2022-10-09T07:30:22.591Z,5.90
2022-10-09T07:32:54.318Z,4.55
2022-10-09T07:35:24.745Z,5.60
2022-10-09T07:37:54.686Z,6.03
2022-10-09T07:40:26.397Z,5.63
2022-10-09T07:45:28.280Z,6.93
2022-10-09T07:47:58.284Z,8.98
2022-10-09T07:50:29.053Z,15.98
2022-10-09T07:52:59.222Z,6.20
2022-10-09T07:55:29.748Z,7.00
2022-10-09T07:58:00.877Z,6.25
2022-10-09T08:03:03.049Z,5.45
2022-10-09T08:05:33.352Z,10.82
2022-10-09T08:08:03.716Z,5.03
2022-10-09T08:10:34.824Z,6.47
2022-10-09T08:13:05.205Z,7.97
2022-10-09T08:15:42.908Z,6.68
2022-10-09T08:18:13.503Z,4.45
2022-10-09T08:20:45.006Z,6.25
2022-10-09T08:23:15.536Z,8.18
2022-10-09T08:25:48.395Z,4.72
2022-10-09T08:28:20.497Z,4.53
2022-10-09T08:30:52.401Z,7.45
2022-10-09T08:33:23.810Z,8.55
2022-10-09T08:38:45.965Z,6.80
2022-10-09T08:41:26.246Z,6.50
2022-10-09T08:44:05.045Z,4.80
2022-10-09T08:46:44.768Z,5.75
2022-10-09T08:49:26.414Z,4.60
2022-10-09T08:52:03.681Z,5.73
2022-10-09T08:54:37.184Z,2.20
2022-10-09T08:57:13.036Z,4.88
2022-10-09T08:59:43.635Z,5.45
2022-10-09T09:02:45.230Z,5.70
2022-10-09T09:05:31.475Z,6.53
2022-10-09T09:08:15.113Z,5.07
2022-10-09T09:10:52.045Z,4.55
2022-10-09T09:13:42.334Z,5.15
2022-10-09T09:16:19.865Z,6.90
2022-10-09T09:19:01.805Z,6.22
2022-10-09T09:21:41.075Z,5.40
2022-10-09T09:24:17.922Z,4.47
2022-10-09T09:26:52.434Z,8.13
2022-10-09T09:29:25.445Z,4.15
2022-10-09T09:31:59.994Z,4.57
2022-10-09T09:34:40.084Z,3.85
2022-10-09T09:37:13.206Z,4.57
2022-10-09T09:40:31.330Z,11.98
2022-10-09T09:45:08.013Z,4.55
2022-10-09T09:47:43.254Z,4.10
2022-10-09T09:50:42.398Z,7.15
2022-10-09T09:53:09.152Z,7.38
2022-10-09T09:55:39.345Z,5.50
2022-10-09T09:58:16.595Z,6.47
2022-10-09T10:00:57.393Z,5.38
2022-10-09T10:03:28.163Z,3.60
2022-10-09T10:06:00.054Z,7.17
2022-10-09T10:08:32.037Z,4.47
2022-10-09T10:11:04.185Z,4.50
2022-10-09T10:13:38.479Z,6.68
2022-10-09T10:16:12.599Z,7.18
2022-10-09T10:18:44.455Z,8.48
2022-10-09T10:21:17.864Z,7.97
2022-10-09T10:23:56.190Z,3.58
2022-10-09T10:26:31.793Z,5.00
2022-10-09T10:29:08.384Z,4.45
2022-10-09T10:31:51.903Z,7.97
2022-10-09T10:34:28.816Z,8.07
2022-10-09T10:37:08.476Z,6.32
2022-10-09T10:39:45.206Z,4.18
2022-10-09T10:42:24.187Z,4.63
2022-10-09T10:45:01.363Z,9.00
2022-10-09T10:47:36.436Z,6.13
2022-10-09T10:50:07.186Z,4.72
2022-10-09T10:52:50.314Z,4.32
2022-10-09T10:55:34.934Z,5.35
2022-10-09T11:01:04.963Z,5.20
2022-10-09T11:04:06.036Z,7.15
2022-10-09T11:06:43.954Z,3.28
2022-10-09T11:09:25.450Z,3.58
2022-10-09T11:14:44.523Z,7.43
2022-10-09T11:17:23.106Z,5.70
2022-10-09T11:20:09.288Z,6.75
2022-10-09T11:23:02.054Z,7.90
2022-10-09T11:25:43.934Z,3.50
2022-10-09T11:30:52.421Z,9.30
2022-10-09T11:33:33.516Z,3.88
2022-10-09T11:36:10.199Z,4.53
2022-10-09T11:38:46.914Z,6.45
2022-10-09T11:41:21.091Z,5.10
2022-10-09T11:44:05.966Z,5.07
2022-10-09T11:46:54.906Z,5.22
2022-10-09T11:49:38.397Z,6.32
2022-10-09T11:52:20.202Z,6.63
2022-10-09T11:54:52.559Z,4.30
2022-10-09T11:57:34.456Z,5.32
2022-10-09T12:00:10.386Z,5.22
2022-10-09T12:02:43.738Z,4.80
2022-10-09T12:05:37.264Z,3.58
2022-10-09T12:08:13.036Z,2.58
2022-10-09T12:10:52.428Z,2.40
2022-10-09T12:13:43.758Z,3.30
2022-10-09T12:16:37.080Z,5.47
2022-10-09T12:19:19.423Z,5.80
2022-10-09T12:22:15.610Z,4.28
2022-10-09T12:24:49.508Z,3.63
2022-10-09T12:27:24.000Z,6.38
2022-10-09T12:29:58.459Z,5.25
2022-10-09T12:32:31.842Z,4.45
2022-10-09T12:35:11.498Z,8.32
2022-10-09T12:37:41.641Z,5.40
2022-10-09T12:40:16.789Z,4.82
2022-10-09T12:42:52.010Z,4.65
2022-10-09T12:45:26.489Z,3.22
2022-10-09T12:47:57.702Z,5.63
2022-10-09T12:53:02.111Z,4.07
2022-10-09T12:55:34.040Z,11.07
2022-10-09T12:58:07.325Z,5.53
2022-10-09T13:00:41.251Z,3.45
2022-10-09T13:03:39.928Z,4.50
2022-10-09T13:06:18.922Z,1.48
2022-10-09T13:08:55.822Z,3.53
2022-10-09T13:11:33.743Z,3.35
2022-10-09T13:14:04.138Z,2.60
2022-10-09T13:16:48.153Z,4.25
2022-10-09T13:19:25.821Z,3.38
2022-10-09T13:22:22.607Z,11.95
2022-10-09T13:24:57.548Z,13.40
2022-10-09T13:27:36.354Z,10.70
2022-10-09T13:30:14.032Z,7.00
2022-10-09T13:32:46.491Z,7.70
2022-10-09T13:35:17.643Z,6.57
2022-10-09T13:37:50.817Z,7.55
2022-10-09T13:40:22.643Z,7.32
2022-10-09T13:45:28.771Z,3.85
2022-10-09T13:48:01.980Z,2.90
2022-10-09T13:50:32.338Z,2.53
2022-10-09T13:53:04.881Z,2.08
2022-10-09T13:55:37.292Z,3.17
2022-10-09T13:58:11.422Z,2.50
2022-10-09T14:03:15.010Z,8.23
2022-10-09T14:05:45.539Z,4.00
2022-10-09T14:08:19.323Z,3.70
2022-10-09T14:10:54.479Z,5.82
2022-10-09T14:13:30.221Z,2.58
2022-10-09T14:16:01.181Z,3.15
2022-10-09T14:18:33.216Z,4.13
2022-10-09T14:21:12.502Z,3.65
2022-10-09T14:23:45.772Z,3.63
2022-10-09T14:26:16.113Z,5.03
2022-10-09T14:28:49.159Z,6.43
2022-10-09T14:31:22.159Z,7.22
2022-10-09T14:33:59.543Z,9.13
2022-10-09T14:36:35.484Z,9.95
2022-10-09T14:39:10.981Z,10.63
2022-10-09T14:41:48.889Z,5.03
2022-10-09T14:44:23.220Z,6.82
2022-10-09T14:47:06.894Z,5.03
2022-10-09T14:49:45.616Z,8.90
2022-10-09T14:52:24.332Z,7.50
2022-10-09T14:54:59.213Z,4.60
2022-10-09T14:57:35.720Z,3.47
2022-10-09T15:00:11.893Z,5.20
2022-10-09T15:02:47.419Z,5.25
2022-10-09T15:05:24.511Z,5.18
2022-10-09T15:07:55.272Z,5.85
2022-10-09T15:10:32.587Z,4.50
2022-10-09T15:13:07.837Z,5.20
2022-10-09T15:15:44.171Z,6.15
2022-10-09T15:18:16.294Z,4.18
2022-10-09T15:20:53.933Z,4.32
2022-10-09T15:23:30.219Z,6.35
2022-10-09T15:26:02.281Z,9.10
2022-10-09T15:28:34.172Z,4.45
2022-10-09T15:31:16.820Z,8.48
2022-10-09T15:33:46.882Z,3.05
2022-10-09T15:36:19.449Z,5.38
2022-10-09T15:38:49.512Z,4.65
2022-10-09T15:41:24.963Z,6.78
2022-10-09T15:44:00.399Z,5.32
2022-10-09T15:46:34.367Z,7.32
2022-10-09T15:49:12.939Z,3.33
2022-10-09T15:51:47.174Z,3.53
2022-10-09T15:54:26.064Z,4.63
2022-10-09T15:56:58.563Z,5.63
2022-10-09T15:59:30.454Z,3.03
2022-10-09T16:02:01.792Z,4.40
2022-10-09T16:04:35.842Z,6.70
2022-10-09T16:07:12.469Z,7.53
2022-10-09T16:09:42.692Z,4.28
2022-10-09T16:12:14.157Z,5.37
2022-10-09T16:14:45.931Z,3.22
2022-10-09T16:17:22.545Z,5.40
2022-10-09T16:19:55.758Z,5.22
2022-10-09T16:22:35.738Z,5.18
2022-10-09T16:25:08.130Z,7.88
2022-10-09T16:27:39.220Z,9.43
2022-10-09T16:30:12.330Z,6.25
2022-10-09T16:32:43.734Z,8.63
2022-10-09T16:35:23.765Z,7.80
2022-10-09T16:37:58.651Z,10.75
2022-10-09T16:41:00.698Z,10.77
2022-10-09T16:43:27.015Z,16.17
2022-10-09T16:45:57.181Z,15.25
2022-10-09T16:48:31.281Z,21.88
2022-10-09T16:51:04.315Z,30.27
2022-10-09T16:53:39.849Z,37.38
2022-10-09T16:56:13.033Z,44.65
2022-10-09T16:58:45.060Z,43.28
2022-10-09T17:01:15.683Z,47.30
2022-10-09T17:03:46.047Z,57.83
2022-10-09T17:06:20.702Z,58.83
2022-10-09T17:08:56.128Z,65.68
2022-10-09T17:11:31.227Z,71.78
2022-10-09T17:14:02.548Z,82.15
2022-10-09T17:16:36.362Z,71.80
2022-10-09T17:19:07.390Z,76.22
2022-10-09T17:21:37.580Z,67.18
2022-10-09T17:24:11.425Z,70.50
2022-10-09T17:26:41.391Z,74.50
2022-10-09T17:29:11.733Z,70.65
2022-10-09T17:31:41.834Z,68.38
2022-10-09T17:34:12.887Z,63.20
2022-10-09T17:36:44.660Z,54.53
2022-10-09T17:39:18.339Z,43.40
2022-10-09T17:41:50.432Z,38.78
2022-10-09T17:44:21.560Z,51.13
2022-10-09T17:46:51.448Z,79.75
2022-10-09T17:49:21.861Z,46.25
2022-10-09T17:51:54.487Z,53.65
2022-10-09T17:54:26.860Z,46.72
2022-10-09T17:56:56.759Z,45.15
2022-10-09T17:59:29.090Z,47.08
2022-10-09T18:01:59.421Z,43.85
2022-10-09T18:04:31.590Z,53.28
2022-10-09T18:07:03.783Z,41.05
2022-10-09T18:09:36.792Z,34.38
2022-10-09T18:12:07.123Z,33.72
2022-10-09T18:14:39.495Z,35.13
2022-10-09T18:17:09.853Z,43.40
2022-10-09T18:19:40.130Z,55.42
2022-10-09T18:22:10.362Z,57.20
2022-10-09T18:24:43.330Z,57.97
2022-10-09T18:27:13.402Z,30.70
2022-10-09T18:29:43.770Z,45.13
2022-10-09T18:32:13.871Z,54.38
2022-10-09T18:34:46.468Z,48.75
2022-10-09T18:37:16.709Z,34.08
2022-10-09T18:39:49.031Z,58.10
2022-10-09T18:42:18.991Z,44.58
2022-10-09T18:44:49.591Z,26.20
2022-10-09T18:47:23.090Z,42.28
2022-10-09T18:49:56.549Z,47.05
2022-10-09T18:52:28.802Z,37.25
2022-10-09T18:55:02.614Z,35.83
2022-10-09T18:57:34.542Z,54.72
2022-10-09T19:00:05.409Z,48.20
2022-10-09T19:02:35.611Z,46.70
2022-10-09T19:05:06.709Z,38.33
2022-10-09T19:07:37.266Z,25.70
2022-10-09T19:10:09.636Z,37.73
2022-10-09T19:12:40.099Z,35.30
2022-10-09T19:15:12.377Z,40.30
2022-10-09T19:17:42.704Z,60.33
2022-10-09T19:20:13.398Z,52.77
2022-10-09T19:22:43.485Z,51.13
2022-10-09T19:25:15.547Z,48.63
2022-10-09T19:27:45.757Z,40.72
2022-10-09T19:30:16.721Z,32.10
2022-10-09T19:32:47.367Z,52.30
2022-10-09T19:35:20.477Z,73.55
2022-10-09T19:37:50.709Z,49.42
2022-10-09T19:40:22.689Z,36.38
2022-10-09T19:42:53.161Z,32.97
2022-10-09T19:45:23.375Z,27.87
2022-10-09T19:47:54.296Z,31.40
2022-10-09T19:52:55.298Z,27.75
2022-10-09T19:55:30.834Z,26.27
2022-10-09T19:58:01.700Z,34.60
2022-10-09T20:00:32.305Z,28.90
2022-10-09T20:03:02.530Z,32.42
2022-10-09T20:05:34.042Z,27.27
2022-10-09T20:08:04.141Z,29.77
2022-10-09T20:10:38.079Z,27.48
2022-10-09T20:13:08.712Z,29.85
2022-10-09T20:15:42.514Z,31.98
2022-10-09T20:18:12.613Z,27.55
2022-10-09T20:20:49.861Z,35.17
2022-10-09T20:23:19.884Z,24.25
2022-10-09T20:26:00.010Z,29.05
2022-10-09T20:28:32.398Z,22.52
2022-10-09T20:31:06.619Z,24.08
2022-10-09T20:33:37.656Z,27.95
2022-10-09T20:36:09.280Z,28.08
2022-10-09T20:38:39.272Z,26.85
2022-10-09T20:41:11.142Z,25.75
2022-10-09T20:43:41.799Z,28.75
2022-10-09T20:46:14.023Z,30.90
2022-10-09T20:48:44.959Z,27.08
2022-10-09T20:51:15.280Z,25.70
2022-10-09T20:53:45.409Z,26.50
2022-10-09T20:56:17.430Z,25.63
2022-10-09T21:01:17.556Z,30.92
2022-10-09T21:03:47.599Z,28.98
2022-10-09T21:06:19.732Z,35.17
2022-10-09T21:08:49.924Z,31.35
2022-10-09T21:11:22.161Z,31.63
2022-10-09T21:13:52.723Z,26.05
2022-10-09T21:16:24.590Z,30.55
2022-10-09T21:21:30.301Z,30.63
2022-10-09T21:24:01.551Z,32.90
2022-10-09T21:26:36.020Z,31.40
2022-10-09T21:29:07.082Z,28.40
2022-10-09T21:31:37.250Z,34.45
2022-10-09T21:34:07.375Z,28.40
2022-10-09T21:36:56.195Z,29.08
2022-10-09T21:39:32.357Z,26.25
2022-10-09T21:42:04.090Z,29.33
2022-10-09T21:44:34.009Z,27.70
2022-10-09T21:47:04.327Z,29.30
2022-10-09T21:49:35.339Z,25.88
2022-10-09T21:52:05.577Z,26.63
2022-10-09T21:54:35.571Z,23.20
2022-10-09T21:57:07.579Z,33.38
2022-10-09T21:59:37.551Z,35.97
2022-10-09T22:02:07.821Z,26.75
2022-10-09T22:04:37.770Z,26.73
2022-10-09T22:07:08.100Z,25.85
2022-10-09T22:09:37.990Z,28.90
2022-10-09T22:12:09.820Z,24.73
2022-10-09T22:17:10.053Z,24.98
2022-10-09T22:19:40.310Z,22.75
2022-10-09T22:22:11.152Z,28.57
2022-10-09T22:24:41.251Z,32.28
2022-10-09T22:27:13.021Z,24.92
2022-10-09T22:32:12.939Z,25.23
2022-10-09T22:34:42.891Z,22.52
2022-10-09T22:37:13.098Z,23.35
2022-10-09T22:39:42.991Z,23.27
2022-10-09T22:42:14.642Z,23.88
2022-10-09T22:44:44.530Z,22.90
2022-10-09T22:47:14.790Z,24.15
2022-10-09T22:49:44.740Z,24.40
2022-10-09T22:52:14.642Z,22.73
2022-10-09T22:54:45.100Z,28.58
2022-10-09T22:57:16.531Z,26.95
2022-10-09T22:59:46.860Z,27.10
2022-10-09T23:02:16.862Z,27.08
2022-10-09T23:04:47.011Z,28.48
2022-10-09T23:07:16.991Z,29.65
2022-10-09T23:09:47.400Z,24.77
2022-10-09T23:12:18.740Z,23.38
2022-10-09T23:17:18.610Z,24.08
2022-10-09T23:19:49.561Z,24.27
2022-10-09T23:22:19.392Z,25.50
2022-10-09T23:24:49.642Z,22.33
2022-10-09T23:27:21.259Z,29.52
2022-10-09T23:29:51.611Z,22.92
2022-10-09T23:32:21.591Z,21.33
2022-10-09T23:34:51.825Z,17.42
2022-10-09T23:37:21.799Z,22.50
2022-10-09T23:39:52.032Z,23.50
2022-10-09T23:42:23.360Z,27.67
2022-10-09T23:44:53.629Z,23.15
2022-10-09T23:47:23.699Z,20.17
2022-10-09T23:49:53.893Z,22.48
2022-10-09T23:52:23.839Z,22.55
2022-10-09T23:54:54.023Z,18.70
2022-10-09T23:57:25.462Z,25.77
2022-10-09T23:59:55.710Z,22.13
